Emily Pg — MXOO8 — position and weather

sailwx.info

Track history (hours):
 
Tides and Currents Weather Stations Pressure Air Temp Water Temp Dewpoint Dewpoint Depression Visibility Wind Speed Wind Dir Waves Ship Positions

Emily Pg

Last reported at 2018-Feb-07 05:07 UTC. Time now 2018-Feb-22 22:59 UTC.
Position N 16°22' W 062°30'.
Warning: this ship's position is 15 days out of date.

Length 102 m; draft 5 m.

Type: Tanker. MMSI: 232566000.

Date/timePositionNaut miles runAvg speedWind from/ knotsBaromVisibWave heightAir tempDewpointWater temp
2018-Feb-07 05:07N 16°22' W 062°30'1 8.9
2018-Feb-07 05:00N 16°23' W 062°30'7 9.1
2018-Feb-07 04:15N 16°29' W 062°34'3 9.4
2018-Feb-07 03:58N 16°31' W 062°35'5 9.8
2018-Feb-07 03:28N 16°36' W 062°37'5 9.6
2018-Feb-07 03:00N 16°40' W 062°39'25 9.5
2018-Feb-07 00:20N 17°02' W 062°51'28 9.8
2018-Feb-06 21:28N 17°27' W 063°05'510.5
2018-Feb-06 21:00N 17°32' W 063°05'510.7
2018-Feb-06 20:30N 17°38' W 063°05'810.6
2018-Feb-06 19:41N 17°46' W 063°05'210.4
2018-Feb-06 19:29N 17°48' W 063°05'510.4
2018-Feb-06 19:00N 17°54' W 063°05'610.5
2018-Feb-06 18:28N 17°59' W 063°05'2 4.6
2018-Feb-06 18:00N 18°01' W 063°05'0 0.0
2018-Feb-06 17:21N 18°01' W 063°05'0 0.0
2018-Feb-06 16:48N 18°01' W 063°05'0 0.0
2018-Feb-06 16:21N 18°01' W 063°05'0 0.0
2018-Feb-06 15:51N 18°01' W 063°05'0 0.0
2018-Feb-06 15:24N 18°01' W 063°05'0 0.0
2018-Feb-06 14:54N 18°01' W 063°05'0 0.0
2018-Feb-06 14:21N 18°01' W 063°05'0 0.0
2018-Feb-06 13:54N 18°01' W 063°05'0 0.0
2018-Feb-06 13:24N 18°01' W 063°05'0 0.0
2018-Feb-06 12:57N 18°01' W 063°05'0 0.0
2018-Feb-06 12:27N 18°01' W 063°05'0 0.0
2018-Feb-06 11:57N 18°01' W 063°05'0 0.2
2018-Feb-06 11:24N 18°01' W 063°05'1 1.3
2018-Feb-06 11:00N 18°01' W 063°05'1 1.1
2018-Feb-06 10:25N 18°00' W 063°05'2 3.5
2018-Feb-06 09:55N 17°58' W 063°05'2 4.5
2018-Feb-06 09:29N 17°56' W 063°05'3 5.0
2018-Feb-06 08:57N 17°54' W 063°05'3 5.1
2018-Feb-06 08:26N 17°51' W 063°05'2 5.4
2018-Feb-06 07:58N 17°49' W 063°05'3 5.5
2018-Feb-06 07:29N 17°46' W 063°05'3 5.5
2018-Feb-06 06:58N 17°43' W 063°05'3 5.5
2018-Feb-06 06:29N 17°40' W 063°05'4 5.4
2018-Feb-06 05:50N 17°37' W 063°05'2 5.5
2018-Feb-06 05:24N 17°34' W 063°05'2 5.8
2018-Feb-06 04:59N 17°32' W 063°05'3 5.4
2018-Feb-06 04:22N 17°29' W 063°04'2 5.4
2018-Feb-06 03:56N 17°26' W 063°04'6 5.7
2018-Feb-06 02:58N 17°23' W 062°59'3 5.6
2018-Feb-06 02:30N 17°22' W 062°57'10 5.8
2018-Feb-06 00:47N 17°17' W 062°48'1 3.8
2018-Feb-06 00:26N 17°16' W 062°46'3 0.3
2018-Feb-05 12:55N 17°17' W 062°43'8 9.3
2018-Feb-05 12:06N 17°18' W 062°51'510.2
2018-Feb-05 11:36N 17°21' W 062°55'11 9.8
2018-Feb-05 10:29N 17°27' W 063°05'610.4
2018-Feb-05 09:54N 17°33' W 063°07'510.0
2018-Feb-05 09:23N 17°38' W 063°09'4 9.2
2018-Feb-05 08:56N 17°41' W 063°12'5 9.9
2018-Feb-05 08:28N 17°43' W 063°16'510.0
2018-Feb-05 07:58N 17°45' W 063°21'510.1
2018-Feb-05 07:27N 17°48' W 063°26'510.0
2018-Feb-05 06:58N 17°50' W 063°30'610.0
2018-Feb-05 06:24N 17°53' W 063°35'2 0.1
2018-Feb-04 02:15N 17°55' W 063°34'2 8.5
2018-Feb-04 01:59N 17°54' W 063°32'4 8.7
2018-Feb-04 01:30N 17°52' W 063°28'5 9.0
2018-Feb-04 00:56N 17°50' W 063°23'4 9.0
2018-Feb-04 00:28N 17°48' W 063°19'5 9.1
2018-Feb-03 23:58N 17°46' W 063°15'6 8.5
2018-Feb-03 23:18N 17°44' W 063°10'3 8.5
2018-Feb-03 22:54N 17°42' W 063°06'3 8.5
2018-Feb-03 22:30N 17°41' W 063°03'4 8.6
2018-Feb-03 22:00N 17°39' W 062°59'4 8.8
2018-Feb-03 21:30N 17°37' W 062°55'26 8.8
2018-Feb-03 18:30N 17°26' W 062°30'4 8.7
2018-Feb-03 18:01N 17°24' W 062°26'4 8.9
2018-Feb-03 17:31N 17°22' W 062°22'4 8.7
2018-Feb-03 17:01N 17°20' W 062°17'9 8.5
2018-Feb-03 16:00N 17°16' W 062°09'4 8.6
2018-Feb-03 15:31N 17°15' W 062°05'4 8.8
2018-Feb-03 15:00N 17°13' W 062°01'4 8.8
2018-Feb-03 14:31N 17°11' W 061°57'4 7.0
2018-Feb-03 14:00N 17°10' W 061°54'1 2.7
2018-Feb-03 13:29N 17°09' W 061°52'0 0.0
2018-Feb-03 12:59N 17°09' W 061°52'0 0.0
2018-Feb-03 12:23N 17°09' W 061°52'0 0.0
2018-Feb-03 11:59N 17°09' W 061°52'0 0.0
2018-Feb-03 11:29N 17°09' W 061°52'0 0.0
2018-Feb-03 10:56N 17°09' W 061°52'0 0.0
2018-Feb-03 10:29N 17°09' W 061°52'0 0.0
2018-Feb-03 09:59N 17°09' W 061°52'0 0.0
2018-Feb-03 09:29N 17°09' W 061°52'0 0.0
2018-Feb-03 08:59N 17°09' W 061°52'0 0.0
2018-Feb-03 08:29N 17°09' W 061°52'0 0.0
2018-Feb-03 07:59N 17°09' W 061°52'0 0.0
2018-Feb-03 06:29N 17°09' W 061°52'0 0.0
2018-Feb-03 05:59N 17°09' W 061°52'0 0.0
2018-Feb-03 05:29N 17°09' W 061°52'0 0.0
2018-Feb-03 04:59N 17°09' W 061°52'0 0.0
2018-Feb-03 03:59N 17°09' W 061°52'0 0.0
2018-Feb-03 03:29N 17°09' W 061°52'0 0.0
2018-Feb-03 01:59N 17°09' W 061°52'0 0.0
2018-Feb-03 01:29N 17°09' W 061°52'0 0.0
2018-Feb-03 00:59N 17°09' W 061°52'0 0.0
2018-Feb-03 00:29N 17°09' W 061°52'0 0.0
2018-Feb-02 23:59N 17°09' W 061°52'0 0.0
2018-Feb-02 23:29N 17°09' W 061°52'44 2.0
2018-Feb-02 01:54N 17°05' W 062°38'3 6.5
2018-Feb-02 01:30N 17°07' W 062°40'3 6.6
2018-Feb-02 01:00N 17°09' W 062°42'2 0.1
2018-Feb-01 10:59N 17°11' W 062°43'4 8.3
2018-Feb-01 10:29N 17°07' W 062°41'5 9.2
2018-Feb-01 09:55N 17°03' W 062°38'5 9.8
2018-Feb-01 09:22N 16°58' W 062°35'1310.7
2018-Feb-01 08:08N 16°46' W 062°28'710.5
2018-Feb-01 07:31N 16°41' W 062°25'610.2
2018-Feb-01 06:57N 16°36' W 062°22'410.0
2018-Feb-01 06:30N 16°32' W 062°20'5 9.9
2018-Feb-01 06:00N 16°28' W 062°17'510.4
2018-Feb-01 05:30N 16°24' W 062°13'5 9.7
2018-Feb-01 05:00N 16°19' W 062°12'5410.4
2018-Jan-31 23:51N 15°34' W 061°42'  
Track history (hours):
 
Tides and Currents Weather Stations Pressure Air Temp Water Temp Dewpoint Dewpoint Depression Visibility Wind Speed Wind Dir Waves Ship Positions

Emily Pg

Last reported at 2018-Feb-07 05:07 UTC. Time now 2018-Feb-22 22:59 UTC.
Position N 16°22' W 062°30'.
Warning: this ship's position is 15 days out of date.

Length 102 m; draft 5 m.

Type: Tanker. MMSI: 232566000.

Date/timePositionNaut miles runAvg speedWind from/ knotsBaromVisibWave heightAir tempDewpointWater temp
2018-Feb-07 05:07N 16°22' W 062°30'1 8.9
2018-Feb-07 05:00N 16°23' W 062°30'7 9.1
2018-Feb-07 04:15N 16°29' W 062°34'3 9.4
2018-Feb-07 03:58N 16°31' W 062°35'5 9.8
2018-Feb-07 03:28N 16°36' W 062°37'5 9.6
2018-Feb-07 03:00N 16°40' W 062°39'25 9.5
2018-Feb-07 00:20N 17°02' W 062°51'28 9.8
2018-Feb-06 21:28N 17°27' W 063°05'510.5
2018-Feb-06 21:00N 17°32' W 063°05'510.7
2018-Feb-06 20:30N 17°38' W 063°05'810.6
2018-Feb-06 19:41N 17°46' W 063°05'210.4
2018-Feb-06 19:29N 17°48' W 063°05'510.4
2018-Feb-06 19:00N 17°54' W 063°05'610.5
2018-Feb-06 18:28N 17°59' W 063°05'2 4.6
2018-Feb-06 18:00N 18°01' W 063°05'0 0.0
2018-Feb-06 17:21N 18°01' W 063°05'0 0.0
2018-Feb-06 16:48N 18°01' W 063°05'0 0.0
2018-Feb-06 16:21N 18°01' W 063°05'0 0.0
2018-Feb-06 15:51N 18°01' W 063°05'0 0.0
2018-Feb-06 15:24N 18°01' W 063°05'0 0.0
2018-Feb-06 14:54N 18°01' W 063°05'0 0.0
2018-Feb-06 14:21N 18°01' W 063°05'0 0.0
2018-Feb-06 13:54N 18°01' W 063°05'0 0.0
2018-Feb-06 13:24N 18°01' W 063°05'0 0.0
2018-Feb-06 12:57N 18°01' W 063°05'0 0.0
2018-Feb-06 12:27N 18°01' W 063°05'0 0.0
2018-Feb-06 11:57N 18°01' W 063°05'0 0.2
2018-Feb-06 11:24N 18°01' W 063°05'1 1.3
2018-Feb-06 11:00N 18°01' W 063°05'1 1.1
2018-Feb-06 10:25N 18°00' W 063°05'2 3.5
2018-Feb-06 09:55N 17°58' W 063°05'2 4.5
2018-Feb-06 09:29N 17°56' W 063°05'3 5.0
2018-Feb-06 08:57N 17°54' W 063°05'3 5.1
2018-Feb-06 08:26N 17°51' W 063°05'2 5.4
2018-Feb-06 07:58N 17°49' W 063°05'3 5.5
2018-Feb-06 07:29N 17°46' W 063°05'3 5.5
2018-Feb-06 06:58N 17°43' W 063°05'3 5.5
2018-Feb-06 06:29N 17°40' W 063°05'4 5.4
2018-Feb-06 05:50N 17°37' W 063°05'2 5.5
2018-Feb-06 05:24N 17°34' W 063°05'2 5.8
2018-Feb-06 04:59N 17°32' W 063°05'3 5.4
2018-Feb-06 04:22N 17°29' W 063°04'2 5.4
2018-Feb-06 03:56N 17°26' W 063°04'6 5.7
2018-Feb-06 02:58N 17°23' W 062°59'3 5.6
2018-Feb-06 02:30N 17°22' W 062°57'10 5.8
2018-Feb-06 00:47N 17°17' W 062°48'1 3.8
2018-Feb-06 00:26N 17°16' W 062°46'3 0.3
2018-Feb-05 12:55N 17°17' W 062°43'8 9.3
2018-Feb-05 12:06N 17°18' W 062°51'510.2
2018-Feb-05 11:36N 17°21' W 062°55'11 9.8
2018-Feb-05 10:29N 17°27' W 063°05'610.4
2018-Feb-05 09:54N 17°33' W 063°07'510.0
2018-Feb-05 09:23N 17°38' W 063°09'4 9.2
2018-Feb-05 08:56N 17°41' W 063°12'5 9.9
2018-Feb-05 08:28N 17°43' W 063°16'510.0
2018-Feb-05 07:58N 17°45' W 063°21'510.1
2018-Feb-05 07:27N 17°48' W 063°26'510.0
2018-Feb-05 06:58N 17°50' W 063°30'610.0
2018-Feb-05 06:24N 17°53' W 063°35'2 0.1
2018-Feb-04 02:15N 17°55' W 063°34'2 8.5
2018-Feb-04 01:59N 17°54' W 063°32'4 8.7
2018-Feb-04 01:30N 17°52' W 063°28'5 9.0
2018-Feb-04 00:56N 17°50' W 063°23'4 9.0
2018-Feb-04 00:28N 17°48' W 063°19'5 9.1
2018-Feb-03 23:58N 17°46' W 063°15'6 8.5
2018-Feb-03 23:18N 17°44' W 063°10'3 8.5
2018-Feb-03 22:54N 17°42' W 063°06'3 8.5
2018-Feb-03 22:30N 17°41' W 063°03'4 8.6
2018-Feb-03 22:00N 17°39' W 062°59'4 8.8
2018-Feb-03 21:30N 17°37' W 062°55'26 8.8
2018-Feb-03 18:30N 17°26' W 062°30'4 8.7
2018-Feb-03 18:01N 17°24' W 062°26'4 8.9
2018-Feb-03 17:31N 17°22' W 062°22'4 8.7
2018-Feb-03 17:01N 17°20' W 062°17'9 8.5
2018-Feb-03 16:00N 17°16' W 062°09'4 8.6
2018-Feb-03 15:31N 17°15' W 062°05'4 8.8
2018-Feb-03 15:00N 17°13' W 062°01'4 8.8
2018-Feb-03 14:31N 17°11' W 061°57'4 7.0
2018-Feb-03 14:00N 17°10' W 061°54'1 2.7
2018-Feb-03 13:29N 17°09' W 061°52'0 0.0
2018-Feb-03 12:59N 17°09' W 061°52'0 0.0
2018-Feb-03 12:23N 17°09' W 061°52'0 0.0
2018-Feb-03 11:59N 17°09' W 061°52'0 0.0
2018-Feb-03 11:29N 17°09' W 061°52'0 0.0
2018-Feb-03 10:56N 17°09' W 061°52'0 0.0
2018-Feb-03 10:29N 17°09' W 061°52'0 0.0
2018-Feb-03 09:59N 17°09' W 061°52'0 0.0
2018-Feb-03 09:29N 17°09' W 061°52'0 0.0
2018-Feb-03 08:59N 17°09' W 061°52'0 0.0
2018-Feb-03 08:29N 17°09' W 061°52'0 0.0
2018-Feb-03 07:59N 17°09' W 061°52'0 0.0
2018-Feb-03 06:29N 17°09' W 061°52'0 0.0
2018-Feb-03 05:59N 17°09' W 061°52'0 0.0
2018-Feb-03 05:29N 17°09' W 061°52'0 0.0
2018-Feb-03 04:59N 17°09' W 061°52'0 0.0
2018-Feb-03 03:59N 17°09' W 061°52'0 0.0
2018-Feb-03 03:29N 17°09' W 061°52'0 0.0
2018-Feb-03 01:59N 17°09' W 061°52'0 0.0
2018-Feb-03 01:29N 17°09' W 061°52'0 0.0
2018-Feb-03 00:59N 17°09' W 061°52'0 0.0
2018-Feb-03 00:29N 17°09' W 061°52'0 0.0
2018-Feb-02 23:59N 17°09' W 061°52'0 0.0
2018-Feb-02 23:29N 17°09' W 061°52'44 2.0
2018-Feb-02 01:54N 17°05' W 062°38'3 6.5
2018-Feb-02 01:30N 17°07' W 062°40'3 6.6
2018-Feb-02 01:00N 17°09' W 062°42'2 0.1
2018-Feb-01 10:59N 17°11' W 062°43'4 8.3
2018-Feb-01 10:29N 17°07' W 062°41'5 9.2
2018-Feb-01 09:55N 17°03' W 062°38'5 9.8
2018-Feb-01 09:22N 16°58' W 062°35'1310.7
2018-Feb-01 08:08N 16°46' W 062°28'710.5
2018-Feb-01 07:31N 16°41' W 062°25'610.2
2018-Feb-01 06:57N 16°36' W 062°22'410.0
2018-Feb-01 06:30N 16°32' W 062°20'5 9.9
2018-Feb-01 06:00N 16°28' W 062°17'510.4
2018-Feb-01 05:30N 16°24' W 062°13'5 9.7
2018-Feb-01 05:00N 16°19' W 062°12'5410.4
2018-Jan-31 23:51N 15°34' W 061°42'  

Dump ship's entire track history